sensor_id;sensor_type;location;lat;lon;timestamp;P1;durP1;ratioP1;P2;durP2;ratioP2
82560;SDS011;72228;51.208;10.468;2023-08-17T00:01:50;5.28;;;4.55;;
82560;SDS011;72228;51.208;10.468;2023-08-17T00:04:15;5.50;;;3.90;;
82560;SDS011;72228;51.208;10.468;2023-08-17T00:06:41;5.25;;;4.35;;
82560;SDS011;72228;51.208;10.468;2023-08-17T00:09:07;5.22;;;3.92;;
82560;SDS011;72228;51.208;10.468;2023-08-17T00:11:34;4.85;;;3.90;;
82560;SDS011;72228;51.208;10.468;2023-08-17T00:14:00;5.00;;;4.20;;
82560;SDS011;72228;51.208;10.468;2023-08-17T00:16:26;4.68;;;3.97;;
82560;SDS011;72228;51.208;10.468;2023-08-17T00:18:51;6.25;;;4.93;;
82560;SDS011;72228;51.208;10.468;2023-08-17T00:21:17;5.57;;;4.15;;
82560;SDS011;72228;51.208;10.468;2023-08-17T00:23:42;4.30;;;3.85;;
82560;SDS011;72228;51.208;10.468;2023-08-17T00:26:08;4.80;;;3.90;;
82560;SDS011;72228;51.208;10.468;2023-08-17T00:28:34;4.57;;;3.85;;
82560;SDS011;72228;51.208;10.468;2023-08-17T00:31:00;5.60;;;3.72;;
82560;SDS011;72228;51.208;10.468;2023-08-17T00:33:25;3.90;;;3.25;;
82560;SDS011;72228;51.208;10.468;2023-08-17T00:35:51;4.50;;;3.63;;
82560;SDS011;72228;51.208;10.468;2023-08-17T00:38:16;5.22;;;3.90;;
82560;SDS011;72228;51.208;10.468;2023-08-17T00:40:42;4.35;;;3.63;;
82560;SDS011;72228;51.208;10.468;2023-08-17T00:43:07;3.97;;;3.40;;
82560;SDS011;72228;51.208;10.468;2023-08-17T00:45:32;4.32;;;3.72;;
82560;SDS011;72228;51.208;10.468;2023-08-17T00:47:59;4.80;;;3.72;;
82560;SDS011;72228;51.208;10.468;2023-08-17T00:50:25;6.15;;;4.13;;
82560;SDS011;72228;51.208;10.468;2023-08-17T00:52:53;4.25;;;3.60;;
82560;SDS011;72228;51.208;10.468;2023-08-17T00:55:21;4.68;;;3.65;;
82560;SDS011;72228;51.208;10.468;2023-08-17T00:57:46;3.97;;;3.20;;
82560;SDS011;72228;51.208;10.468;2023-08-17T01:00:12;4.28;;;3.83;;
82560;SDS011;72228;51.208;10.468;2023-08-17T01:02:40;4.57;;;4.07;;
82560;SDS011;72228;51.208;10.468;2023-08-17T01:05:06;3.78;;;3.15;;
82560;SDS011;72228;51.208;10.468;2023-08-17T01:07:32;4.00;;;3.60;;
82560;SDS011;72228;51.208;10.468;2023-08-17T01:09:58;4.50;;;3.75;;
82560;SDS011;72228;51.208;10.468;2023-08-17T01:12:31;4.72;;;3.70;;
82560;SDS011;72228;51.208;10.468;2023-08-17T01:15:27;4.13;;;3.47;;
82560;SDS011;72228;51.208;10.468;2023-08-17T01:18:01;4.43;;;3.40;;
82560;SDS011;72228;51.208;10.468;2023-08-17T01:20:28;4.55;;;3.60;;
82560;SDS011;72228;51.208;10.468;2023-08-17T01:22:56;3.95;;;3.30;;
82560;SDS011;72228;51.208;10.468;2023-08-17T01:25:30;3.92;;;3.17;;
82560;SDS011;72228;51.208;10.468;2023-08-17T01:28:01;4.63;;;3.30;;
82560;SDS011;72228;51.208;10.468;2023-08-17T01:30:26;4.13;;;3.40;;
82560;SDS011;72228;51.208;10.468;2023-08-17T01:33:14;4.20;;;3.33;;
82560;SDS011;72228;51.208;10.468;2023-08-17T01:38:50;4.25;;;3.30;;
82560;SDS011;72228;51.208;10.468;2023-08-17T01:41:17;4.32;;;3.50;;
82560;SDS011;72228;51.208;10.468;2023-08-17T01:43:45;4.30;;;3.00;;
82560;SDS011;72228;51.208;10.468;2023-08-17T01:46:15;4.20;;;3.13;;
82560;SDS011;72228;51.208;10.468;2023-08-17T01:48:42;4.70;;;3.67;;
82560;SDS011;72228;51.208;10.468;2023-08-17T01:51:08;3.55;;;3.10;;
82560;SDS011;72228;51.208;10.468;2023-08-17T01:53:36;4.05;;;3.13;;
82560;SDS011;72228;51.208;10.468;2023-08-17T01:56:02;3.58;;;2.92;;
82560;SDS011;72228;51.208;10.468;2023-08-17T01:58:27;4.10;;;3.03;;
82560;SDS011;72228;51.208;10.468;2023-08-17T02:00:53;3.55;;;3.00;;
82560;SDS011;72228;51.208;10.468;2023-08-17T02:03:18;3.78;;;3.05;;
82560;SDS011;72228;51.208;10.468;2023-08-17T02:05:46;3.95;;;3.00;;
82560;SDS011;72228;51.208;10.468;2023-08-17T02:08:12;3.45;;;2.78;;
82560;SDS011;72228;51.208;10.468;2023-08-17T02:10:38;3.65;;;3.05;;
82560;SDS011;72228;51.208;10.468;2023-08-17T02:13:03;3.55;;;2.80;;
82560;SDS011;72228;51.208;10.468;2023-08-17T02:15:29;3.47;;;3.05;;
82560;SDS011;72228;51.208;10.468;2023-08-17T02:17:54;3.42;;;2.92;;
82560;SDS011;72228;51.208;10.468;2023-08-17T02:20:20;3.75;;;2.88;;
82560;SDS011;72228;51.208;10.468;2023-08-17T02:22:45;4.05;;;2.47;;
82560;SDS011;72228;51.208;10.468;2023-08-17T02:25:10;3.35;;;2.88;;
82560;SDS011;72228;51.208;10.468;2023-08-17T02:27:36;4.50;;;2.70;;
82560;SDS011;72228;51.208;10.468;2023-08-17T02:30:02;3.45;;;2.80;;
82560;SDS011;72228;51.208;10.468;2023-08-17T02:32:28;4.60;;;2.90;;
82560;SDS011;72228;51.208;10.468;2023-08-17T02:34:54;3.55;;;2.80;;
82560;SDS011;72228;51.208;10.468;2023-08-17T02:37:19;3.25;;;2.30;;
82560;SDS011;72228;51.208;10.468;2023-08-17T02:39:44;3.33;;;2.72;;
82560;SDS011;72228;51.208;10.468;2023-08-17T02:42:10;3.00;;;2.35;;
82560;SDS011;72228;51.208;10.468;2023-08-17T02:44:35;4.18;;;2.65;;
82560;SDS011;72228;51.208;10.468;2023-08-17T02:47:01;2.70;;;2.20;;
82560;SDS011;72228;51.208;10.468;2023-08-17T02:49:26;3.40;;;2.40;;
82560;SDS011;72228;51.208;10.468;2023-08-17T02:51:52;3.70;;;2.65;;
82560;SDS011;72228;51.208;10.468;2023-08-17T02:54:17;3.45;;;2.63;;
82560;SDS011;72228;51.208;10.468;2023-08-17T02:56:43;3.00;;;2.10;;
82560;SDS011;72228;51.208;10.468;2023-08-17T02:59:08;2.47;;;2.03;;
82560;SDS011;72228;51.208;10.468;2023-08-17T03:01:33;4.90;;;2.47;;
82560;SDS011;72228;51.208;10.468;2023-08-17T03:03:59;2.50;;;1.98;;
82560;SDS011;72228;51.208;10.468;2023-08-17T03:06:24;3.00;;;2.00;;
82560;SDS011;72228;51.208;10.468;2023-08-17T03:08:50;2.85;;;2.13;;
82560;SDS011;72228;51.208;10.468;2023-08-17T03:11:17;2.83;;;1.90;;
82560;SDS011;72228;51.208;10.468;2023-08-17T03:13:43;3.47;;;2.35;;
82560;SDS011;72228;51.208;10.468;2023-08-17T03:16:08;4.18;;;2.80;;
82560;SDS011;72228;51.208;10.468;2023-08-17T03:18:33;4.30;;;3.15;;
82560;SDS011;72228;51.208;10.468;2023-08-17T03:20:59;4.97;;;3.70;;
82560;SDS011;72228;51.208;10.468;2023-08-17T03:23:24;3.88;;;3.47;;
82560;SDS011;72228;51.208;10.468;2023-08-17T03:25:53;5.05;;;3.45;;
82560;SDS011;72228;51.208;10.468;2023-08-17T03:28:19;3.88;;;3.47;;
82560;SDS011;72228;51.208;10.468;2023-08-17T03:30:44;4.40;;;3.55;;
82560;SDS011;72228;51.208;10.468;2023-08-17T03:33:10;3.22;;;2.67;;
82560;SDS011;72228;51.208;10.468;2023-08-17T03:35:35;3.97;;;3.15;;
82560;SDS011;72228;51.208;10.468;2023-08-17T03:38:00;6.60;;;4.03;;
82560;SDS011;72228;51.208;10.468;2023-08-17T03:41:40;3.92;;;2.33;;
82560;SDS011;72228;51.208;10.468;2023-08-17T03:44:06;3.72;;;2.58;;
82560;SDS011;72228;51.208;10.468;2023-08-17T03:46:32;4.15;;;3.08;;
82560;SDS011;72228;51.208;10.468;2023-08-17T03:48:57;4.97;;;3.85;;
82560;SDS011;72228;51.208;10.468;2023-08-17T03:51:23;6.13;;;4.80;;
82560;SDS011;72228;51.208;10.468;2023-08-17T03:53:48;6.28;;;5.57;;
82560;SDS011;72228;51.208;10.468;2023-08-17T03:56:14;7.97;;;6.35;;
82560;SDS011;72228;51.208;10.468;2023-08-17T03:58:39;6.35;;;5.22;;
82560;SDS011;72228;51.208;10.468;2023-08-17T04:01:06;6.43;;;5.43;;
82560;SDS011;72228;51.208;10.468;2023-08-17T04:03:31;5.63;;;4.70;;
82560;SDS011;72228;51.208;10.468;2023-08-17T04:05:57;4.93;;;3.83;;
82560;SDS011;72228;51.208;10.468;2023-08-17T04:08:22;5.72;;;4.30;;
82560;SDS011;72228;51.208;10.468;2023-08-17T04:10:47;4.63;;;4.07;;
82560;SDS011;72228;51.208;10.468;2023-08-17T04:13:13;10.63;;;3.90;;
82560;SDS011;72228;51.208;10.468;2023-08-17T04:15:38;8.23;;;4.03;;
82560;SDS011;72228;51.208;10.468;2023-08-17T04:18:04;7.82;;;3.97;;
82560;SDS011;72228;51.208;10.468;2023-08-17T04:20:29;7.10;;;3.95;;
82560;SDS011;72228;51.208;10.468;2023-08-17T04:22:54;4.95;;;3.60;;
82560;SDS011;72228;51.208;10.468;2023-08-17T04:25:20;5.53;;;3.80;;
82560;SDS011;72228;51.208;10.468;2023-08-17T04:27:45;11.38;;;3.97;;
82560;SDS011;72228;51.208;10.468;2023-08-17T04:30:11;6.50;;;3.75;;
82560;SDS011;72228;51.208;10.468;2023-08-17T04:32:37;6.72;;;3.60;;
82560;SDS011;72228;51.208;10.468;2023-08-17T04:35:02;6.07;;;3.97;;
82560;SDS011;72228;51.208;10.468;2023-08-17T04:37:29;8.52;;;3.47;;
82560;SDS011;72228;51.208;10.468;2023-08-17T04:39:54;4.78;;;3.20;;
82560;SDS011;72228;51.208;10.468;2023-08-17T04:42:19;4.97;;;3.20;;
82560;SDS011;72228;51.208;10.468;2023-08-17T04:44:45;6.00;;;3.45;;
82560;SDS011;72228;51.208;10.468;2023-08-17T04:47:10;14.82;;;3.50;;
82560;SDS011;72228;51.208;10.468;2023-08-17T04:49:36;5.15;;;3.45;;
82560;SDS011;72228;51.208;10.468;2023-08-17T04:52:01;6.50;;;3.22;;
82560;SDS011;72228;51.208;10.468;2023-08-17T04:54:28;6.50;;;3.13;;
82560;SDS011;72228;51.208;10.468;2023-08-17T04:56:55;7.93;;;3.65;;
82560;SDS011;72228;51.208;10.468;2023-08-17T04:59:20;9.50;;;3.50;;
82560;SDS011;72228;51.208;10.468;2023-08-17T05:01:46;8.43;;;2.53;;
82560;SDS011;72228;51.208;10.468;2023-08-17T05:04:11;7.10;;;2.90;;
82560;SDS011;72228;51.208;10.468;2023-08-17T05:06:37;4.70;;;2.55;;
82560;SDS011;72228;51.208;10.468;2023-08-17T05:09:03;5.97;;;2.80;;
82560;SDS011;72228;51.208;10.468;2023-08-17T05:11:30;4.53;;;2.60;;
82560;SDS011;72228;51.208;10.468;2023-08-17T05:13:55;5.05;;;2.95;;
82560;SDS011;72228;51.208;10.468;2023-08-17T05:16:21;7.53;;;3.30;;
82560;SDS011;72228;51.208;10.468;2023-08-17T05:18:47;6.20;;;2.95;;
82560;SDS011;72228;51.208;10.468;2023-08-17T05:21:12;5.88;;;3.20;;
82560;SDS011;72228;51.208;10.468;2023-08-17T05:23:38;8.15;;;2.47;;
82560;SDS011;72228;51.208;10.468;2023-08-17T05:26:03;6.53;;;2.40;;
82560;SDS011;72228;51.208;10.468;2023-08-17T05:28:28;3.67;;;2.25;;
82560;SDS011;72228;51.208;10.468;2023-08-17T05:30:54;2.95;;;2.20;;
82560;SDS011;72228;51.208;10.468;2023-08-17T05:33:19;6.53;;;3.70;;
82560;SDS011;72228;51.208;10.468;2023-08-17T05:35:44;12.00;;;4.22;;
82560;SDS011;72228;51.208;10.468;2023-08-17T05:38:10;5.90;;;2.88;;
82560;SDS011;72228;51.208;10.468;2023-08-17T05:40:35;5.03;;;3.05;;
82560;SDS011;72228;51.208;10.468;2023-08-17T05:43:01;5.00;;;2.83;;
82560;SDS011;72228;51.208;10.468;2023-08-17T05:45:27;5.88;;;3.70;;
82560;SDS011;72228;51.208;10.468;2023-08-17T05:47:52;9.95;;;5.90;;
82560;SDS011;72228;51.208;10.468;2023-08-17T05:50:18;12.80;;;3.85;;
82560;SDS011;72228;51.208;10.468;2023-08-17T05:52:44;5.45;;;3.90;;
82560;SDS011;72228;51.208;10.468;2023-08-17T05:55:09;8.55;;;4.40;;
82560;SDS011;72228;51.208;10.468;2023-08-17T05:57:35;5.82;;;3.97;;
82560;SDS011;72228;51.208;10.468;2023-08-17T06:00:00;4.35;;;2.97;;
82560;SDS011;72228;51.208;10.468;2023-08-17T06:02:26;9.27;;;5.30;;
82560;SDS011;72228;51.208;10.468;2023-08-17T06:04:51;6.32;;;3.45;;
82560;SDS011;72228;51.208;10.468;2023-08-17T06:07:16;5.85;;;3.55;;
82560;SDS011;72228;51.208;10.468;2023-08-17T06:09:42;8.02;;;3.55;;
82560;SDS011;72228;51.208;10.468;2023-08-17T06:12:07;5.03;;;3.42;;
82560;SDS011;72228;51.208;10.468;2023-08-17T06:14:33;4.43;;;3.30;;
82560;SDS011;72228;51.208;10.468;2023-08-17T06:16:59;6.35;;;3.75;;
82560;SDS011;72228;51.208;10.468;2023-08-17T06:19:24;7.10;;;3.85;;
82560;SDS011;72228;51.208;10.468;2023-08-17T06:21:50;4.78;;;3.00;;
82560;SDS011;72228;51.208;10.468;2023-08-17T06:24:15;4.75;;;3.30;;
82560;SDS011;72228;51.208;10.468;2023-08-17T06:26:41;5.18;;;3.58;;
82560;SDS011;72228;51.208;10.468;2023-08-17T06:29:06;5.13;;;3.25;;
82560;SDS011;72228;51.208;10.468;2023-08-17T06:31:32;10.45;;;3.55;;
82560;SDS011;72228;51.208;10.468;2023-08-17T06:33:57;6.95;;;3.50;;
82560;SDS011;72228;51.208;10.468;2023-08-17T06:36:23;6.20;;;3.30;;
82560;SDS011;72228;51.208;10.468;2023-08-17T06:38:48;4.28;;;3.60;;
82560;SDS011;72228;51.208;10.468;2023-08-17T06:41:14;10.65;;;3.10;;
82560;SDS011;72228;51.208;10.468;2023-08-17T06:43:40;4.38;;;3.50;;
82560;SDS011;72228;51.208;10.468;2023-08-17T06:46:05;6.60;;;3.75;;
82560;SDS011;72228;51.208;10.468;2023-08-17T06:48:31;4.53;;;3.28;;
82560;SDS011;72228;51.208;10.468;2023-08-17T06:50:57;6.50;;;3.28;;
82560;SDS011;72228;51.208;10.468;2023-08-17T06:53:22;7.75;;;3.67;;
82560;SDS011;72228;51.208;10.468;2023-08-17T06:55:48;5.00;;;3.40;;
82560;SDS011;72228;51.208;10.468;2023-08-17T06:58:13;7.68;;;3.30;;
82560;SDS011;72228;51.208;10.468;2023-08-17T07:00:38;10.57;;;3.60;;
82560;SDS011;72228;51.208;10.468;2023-08-17T07:03:06;4.05;;;3.08;;
82560;SDS011;72228;51.208;10.468;2023-08-17T07:05:31;6.65;;;3.13;;
82560;SDS011;72228;51.208;10.468;2023-08-17T07:07:57;4.63;;;3.00;;
82560;SDS011;72228;51.208;10.468;2023-08-17T07:10:24;6.25;;;3.25;;
82560;SDS011;72228;51.208;10.468;2023-08-17T07:12:49;5.22;;;3.08;;
82560;SDS011;72228;51.208;10.468;2023-08-17T07:15:15;5.30;;;2.97;;
82560;SDS011;72228;51.208;10.468;2023-08-17T07:17:40;6.70;;;3.22;;
82560;SDS011;72228;51.208;10.468;2023-08-17T07:20:06;3.75;;;2.70;;
82560;SDS011;72228;51.208;10.468;2023-08-17T07:22:36;6.57;;;2.92;;
82560;SDS011;72228;51.208;10.468;2023-08-17T07:25:01;4.50;;;2.85;;
82560;SDS011;72228;51.208;10.468;2023-08-17T07:27:28;16.67;;;5.07;;
82560;SDS011;72228;51.208;10.468;2023-08-17T07:29:54;4.68;;;3.03;;
82560;SDS011;72228;51.208;10.468;2023-08-17T07:32:19;4.90;;;3.08;;
82560;SDS011;72228;51.208;10.468;2023-08-17T07:34:46;6.68;;;3.00;;
82560;SDS011;72228;51.208;10.468;2023-08-17T07:37:11;4.78;;;2.90;;
82560;SDS011;72228;51.208;10.468;2023-08-17T07:39:37;6.28;;;2.63;;
82560;SDS011;72228;51.208;10.468;2023-08-17T07:42:02;7.05;;;2.70;;
82560;SDS011;72228;51.208;10.468;2023-08-17T07:44:28;7.30;;;2.65;;
82560;SDS011;72228;51.208;10.468;2023-08-17T07:46:56;5.15;;;3.28;;
82560;SDS011;72228;51.208;10.468;2023-08-17T07:49:22;3.72;;;2.42;;
82560;SDS011;72228;51.208;10.468;2023-08-17T07:51:48;4.50;;;2.40;;
82560;SDS011;72228;51.208;10.468;2023-08-17T07:54:13;11.30;;;2.70;;
82560;SDS011;72228;51.208;10.468;2023-08-17T07:56:39;7.18;;;2.50;;
82560;SDS011;72228;51.208;10.468;2023-08-17T07:59:04;8.25;;;2.55;;
82560;SDS011;72228;51.208;10.468;2023-08-17T08:01:29;3.05;;;2.45;;
82560;SDS011;72228;51.208;10.468;2023-08-17T08:03:55;3.75;;;2.58;;
82560;SDS011;72228;51.208;10.468;2023-08-17T08:06:20;3.75;;;2.80;;
82560;SDS011;72228;51.208;10.468;2023-08-17T08:08:46;4.57;;;2.45;;
82560;SDS011;72228;51.208;10.468;2023-08-17T08:11:11;2.85;;;2.28;;
82560;SDS011;72228;51.208;10.468;2023-08-17T08:13:37;3.40;;;2.35;;
82560;SDS011;72228;51.208;10.468;2023-08-17T08:16:02;3.13;;;2.58;;
82560;SDS011;72228;51.208;10.468;2023-08-17T08:18:28;2.30;;;1.98;;
82560;SDS011;72228;51.208;10.468;2023-08-17T08:20:53;4.55;;;2.30;;
82560;SDS011;72228;51.208;10.468;2023-08-17T08:23:18;5.18;;;2.13;;
82560;SDS011;72228;51.208;10.468;2023-08-17T08:25:44;4.38;;;2.42;;
82560;SDS011;72228;51.208;10.468;2023-08-17T08:28:09;3.95;;;2.20;;
82560;SDS011;72228;51.208;10.468;2023-08-17T08:30:35;3.03;;;2.08;;
82560;SDS011;72228;51.208;10.468;2023-08-17T08:33:01;3.00;;;2.53;;
82560;SDS011;72228;51.208;10.468;2023-08-17T08:35:26;4.68;;;2.40;;
82560;SDS011;72228;51.208;10.468;2023-08-17T08:37:53;6.95;;;2.45;;
82560;SDS011;72228;51.208;10.468;2023-08-17T08:40:20;3.00;;;1.90;;
82560;SDS011;72228;51.208;10.468;2023-08-17T08:42:52;3.47;;;2.10;;
82560;SDS011;72228;51.208;10.468;2023-08-17T08:45:17;3.28;;;2.33;;
82560;SDS011;72228;51.208;10.468;2023-08-17T08:47:43;3.70;;;2.00;;
82560;SDS011;72228;51.208;10.468;2023-08-17T08:50:09;4.20;;;2.33;;
82560;SDS011;72228;51.208;10.468;2023-08-17T08:52:41;3.00;;;2.28;;
82560;SDS011;72228;51.208;10.468;2023-08-17T08:55:17;3.75;;;2.50;;
82560;SDS011;72228;51.208;10.468;2023-08-17T08:57:44;3.05;;;2.15;;
82560;SDS011;72228;51.208;10.468;2023-08-17T09:00:11;4.95;;;2.50;;
82560;SDS011;72228;51.208;10.468;2023-08-17T09:02:38;4.05;;;1.85;;
82560;SDS011;72228;51.208;10.468;2023-08-17T09:05:05;3.80;;;2.90;;
82560;SDS011;72228;51.208;10.468;2023-08-17T09:07:31;2.63;;;1.92;;
82560;SDS011;72228;51.208;10.468;2023-08-17T09:09:58;2.80;;;2.15;;
82560;SDS011;72228;51.208;10.468;2023-08-17T09:12:24;3.42;;;2.20;;
82560;SDS011;72228;51.208;10.468;2023-08-17T09:14:50;3.33;;;2.03;;
82560;SDS011;72228;51.208;10.468;2023-08-17T09:17:22;2.83;;;2.15;;
82560;SDS011;72228;51.208;10.468;2023-08-17T09:19:51;3.35;;;1.98;;
82560;SDS011;72228;51.208;10.468;2023-08-17T09:22:24;4.10;;;2.47;;
82560;SDS011;72228;51.208;10.468;2023-08-17T09:24:50;2.72;;;2.10;;
82560;SDS011;72228;51.208;10.468;2023-08-17T09:27:16;3.42;;;2.00;;
82560;SDS011;72228;51.208;10.468;2023-08-17T09:29:42;4.32;;;2.13;;
82560;SDS011;72228;51.208;10.468;2023-08-17T09:32:10;2.42;;;1.90;;
82560;SDS011;72228;51.208;10.468;2023-08-17T09:34:36;2.30;;;1.92;;
82560;SDS011;72228;51.208;10.468;2023-08-17T09:37:05;3.47;;;2.20;;
82560;SDS011;72228;51.208;10.468;2023-08-17T09:39:31;2.33;;;1.70;;
82560;SDS011;72228;51.208;10.468;2023-08-17T09:41:56;2.55;;;1.88;;
82560;SDS011;72228;51.208;10.468;2023-08-17T09:44:22;3.40;;;2.08;;
82560;SDS011;72228;51.208;10.468;2023-08-17T09:46:47;2.67;;;1.90;;
82560;SDS011;72228;51.208;10.468;2023-08-17T09:49:13;2.60;;;1.88;;
82560;SDS011;72228;51.208;10.468;2023-08-17T09:51:42;2.63;;;1.95;;
82560;SDS011;72228;51.208;10.468;2023-08-17T09:54:14;2.65;;;1.92;;
82560;SDS011;72228;51.208;10.468;2023-08-17T09:56:46;2.20;;;1.80;;
82560;SDS011;72228;51.208;10.468;2023-08-17T09:59:12;2.65;;;2.00;;
82560;SDS011;72228;51.208;10.468;2023-08-17T10:01:37;3.85;;;1.95;;
82560;SDS011;72228;51.208;10.468;2023-08-17T10:04:03;3.67;;;2.08;;
82560;SDS011;72228;51.208;10.468;2023-08-17T10:06:30;2.85;;;1.92;;
82560;SDS011;72228;51.208;10.468;2023-08-17T10:08:59;2.58;;;1.98;;
82560;SDS011;72228;51.208;10.468;2023-08-17T10:11:25;2.67;;;2.03;;
82560;SDS011;72228;51.208;10.468;2023-08-17T10:13:57;3.22;;;1.92;;
82560;SDS011;72228;51.208;10.468;2023-08-17T10:16:39;4.10;;;2.20;;
82560;SDS011;72228;51.208;10.468;2023-08-17T10:21:48;2.80;;;1.80;;
82560;SDS011;72228;51.208;10.468;2023-08-17T10:24:18;2.97;;;1.80;;
82560;SDS011;72228;51.208;10.468;2023-08-17T10:26:44;2.80;;;2.00;;
82560;SDS011;72228;51.208;10.468;2023-08-17T10:29:10;3.38;;;1.98;;
82560;SDS011;72228;51.208;10.468;2023-08-17T10:31:37;3.28;;;2.10;;
82560;SDS011;72228;51.208;10.468;2023-08-17T10:34:03;3.17;;;1.90;;
82560;SDS011;72228;51.208;10.468;2023-08-17T10:36:30;3.25;;;1.95;;
82560;SDS011;72228;51.208;10.468;2023-08-17T10:41:55;3.13;;;2.28;;
82560;SDS011;72228;51.208;10.468;2023-08-17T10:49:56;3.08;;;2.08;;
82560;SDS011;72228;51.208;10.468;2023-08-17T10:52:26;3.78;;;2.50;;
82560;SDS011;72228;51.208;10.468;2023-08-17T10:54:52;3.38;;;2.15;;
82560;SDS011;72228;51.208;10.468;2023-08-17T10:57:24;3.25;;;2.15;;
82560;SDS011;72228;51.208;10.468;2023-08-17T11:03:00;2.85;;;2.17;;
82560;SDS011;72228;51.208;10.468;2023-08-17T11:08:34;4.40;;;2.47;;
82560;SDS011;72228;51.208;10.468;2023-08-17T11:13:40;4.20;;;3.00;;
82560;SDS011;72228;51.208;10.468;2023-08-17T11:17:30;4.78;;;2.83;;
82560;SDS011;72228;51.208;10.468;2023-08-17T11:19:56;3.65;;;2.97;;
82560;SDS011;72228;51.208;10.468;2023-08-17T11:22:21;4.75;;;3.00;;
82560;SDS011;72228;51.208;10.468;2023-08-17T11:24:47;4.82;;;2.88;;
82560;SDS011;72228;51.208;10.468;2023-08-17T11:27:13;3.97;;;2.97;;
82560;SDS011;72228;51.208;10.468;2023-08-17T11:29:39;6.22;;;3.20;;
82560;SDS011;72228;51.208;10.468;2023-08-17T11:32:05;4.20;;;2.88;;
82560;SDS011;72228;51.208;10.468;2023-08-17T11:34:30;7.15;;;3.45;;
82560;SDS011;72228;51.208;10.468;2023-08-17T11:36:58;6.82;;;3.13;;
82560;SDS011;72228;51.208;10.468;2023-08-17T11:39:24;4.20;;;3.30;;
82560;SDS011;72228;51.208;10.468;2023-08-17T11:41:49;4.07;;;2.78;;
82560;SDS011;72228;51.208;10.468;2023-08-17T11:44:18;6.35;;;3.20;;
82560;SDS011;72228;51.208;10.468;2023-08-17T11:46:46;5.85;;;3.33;;
82560;SDS011;72228;51.208;10.468;2023-08-17T11:49:12;5.70;;;3.40;;
82560;SDS011;72228;51.208;10.468;2023-08-17T11:51:38;5.22;;;3.72;;
82560;SDS011;72228;51.208;10.468;2023-08-17T11:54:04;5.43;;;3.63;;
82560;SDS011;72228;51.208;10.468;2023-08-17T11:58:58;4.38;;;3.58;;
82560;SDS011;72228;51.208;10.468;2023-08-17T12:01:23;4.68;;;3.08;;
82560;SDS011;72228;51.208;10.468;2023-08-17T12:03:48;4.70;;;3.50;;
82560;SDS011;72228;51.208;10.468;2023-08-17T12:06:15;5.78;;;3.40;;
82560;SDS011;72228;51.208;10.468;2023-08-17T12:08:45;10.10;;;3.65;;
82560;SDS011;72228;51.208;10.468;2023-08-17T12:11:11;4.18;;;3.40;;
82560;SDS011;72228;51.208;10.468;2023-08-17T12:13:36;4.60;;;3.42;;
82560;SDS011;72228;51.208;10.468;2023-08-17T12:16:02;5.00;;;3.40;;
82560;SDS011;72228;51.208;10.468;2023-08-17T12:18:28;4.57;;;3.63;;
82560;SDS011;72228;51.208;10.468;2023-08-17T12:20:57;6.72;;;3.42;;
82560;SDS011;72228;51.208;10.468;2023-08-17T12:23:22;4.75;;;3.72;;
82560;SDS011;72228;51.208;10.468;2023-08-17T12:25:54;4.32;;;3.53;;
82560;SDS011;72228;51.208;10.468;2023-08-17T12:28:20;5.05;;;3.33;;
82560;SDS011;72228;51.208;10.468;2023-08-17T12:30:47;5.15;;;4.18;;
82560;SDS011;72228;51.208;10.468;2023-08-17T12:33:12;6.50;;;3.97;;
82560;SDS011;72228;51.208;10.468;2023-08-17T12:35:38;10.10;;;4.82;;
82560;SDS011;72228;51.208;10.468;2023-08-17T12:38:03;5.68;;;3.72;;
82560;SDS011;72228;51.208;10.468;2023-08-17T12:40:28;4.88;;;3.90;;
82560;SDS011;72228;51.208;10.468;2023-08-17T12:42:56;7.68;;;4.10;;
82560;SDS011;72228;51.208;10.468;2023-08-17T12:45:22;7.85;;;4.13;;
82560;SDS011;72228;51.208;10.468;2023-08-17T12:47:47;6.35;;;4.00;;
82560;SDS011;72228;51.208;10.468;2023-08-17T12:50:12;5.95;;;4.78;;
82560;SDS011;72228;51.208;10.468;2023-08-17T12:52:38;14.07;;;5.22;;
82560;SDS011;72228;51.208;10.468;2023-08-17T12:55:03;10.45;;;5.45;;
82560;SDS011;72228;51.208;10.468;2023-08-17T12:57:29;7.97;;;5.60;;
82560;SDS011;72228;51.208;10.468;2023-08-17T12:59:55;8.63;;;5.65;;
82560;SDS011;72228;51.208;10.468;2023-08-17T13:02:20;9.80;;;6.25;;
82560;SDS011;72228;51.208;10.468;2023-08-17T13:04:46;8.73;;;6.40;;
82560;SDS011;72228;51.208;10.468;2023-08-17T13:07:12;13.00;;;6.30;;
82560;SDS011;72228;51.208;10.468;2023-08-17T13:09:37;9.65;;;5.72;;
82560;SDS011;72228;51.208;10.468;2023-08-17T13:12:03;7.78;;;6.15;;
82560;SDS011;72228;51.208;10.468;2023-08-17T13:14:28;11.63;;;5.82;;
82560;SDS011;72228;51.208;10.468;2023-08-17T13:16:54;6.15;;;5.43;;
82560;SDS011;72228;51.208;10.468;2023-08-17T13:19:19;7.05;;;6.13;;
82560;SDS011;72228;51.208;10.468;2023-08-17T13:21:45;8.30;;;5.15;;
82560;SDS011;72228;51.208;10.468;2023-08-17T13:24:10;10.32;;;5.75;;
82560;SDS011;72228;51.208;10.468;2023-08-17T13:26:36;9.43;;;5.90;;
82560;SDS011;72228;51.208;10.468;2023-08-17T13:29:01;9.50;;;5.50;;
82560;SDS011;72228;51.208;10.468;2023-08-17T13:31:27;8.70;;;6.00;;
82560;SDS011;72228;51.208;10.468;2023-08-17T13:33:53;7.57;;;5.75;;
82560;SDS011;72228;51.208;10.468;2023-08-17T13:36:18;16.58;;;7.07;;
82560;SDS011;72228;51.208;10.468;2023-08-17T13:38:44;13.73;;;7.38;;
82560;SDS011;72228;51.208;10.468;2023-08-17T13:41:10;9.77;;;6.60;;
82560;SDS011;72228;51.208;10.468;2023-08-17T13:43:36;16.20;;;8.07;;
82560;SDS011;72228;51.208;10.468;2023-08-17T13:46:01;9.23;;;6.50;;
82560;SDS011;72228;51.208;10.468;2023-08-17T13:48:26;8.80;;;5.95;;
82560;SDS011;72228;51.208;10.468;2023-08-17T13:50:52;10.68;;;6.00;;
82560;SDS011;72228;51.208;10.468;2023-08-17T13:53:17;10.00;;;6.38;;
82560;SDS011;72228;51.208;10.468;2023-08-17T13:55:43;8.10;;;6.47;;
82560;SDS011;72228;51.208;10.468;2023-08-17T13:58:08;6.85;;;5.70;;
82560;SDS011;72228;51.208;10.468;2023-08-17T14:00:35;9.02;;;6.20;;
82560;SDS011;72228;51.208;10.468;2023-08-17T14:03:01;7.70;;;5.45;;
82560;SDS011;72228;51.208;10.468;2023-08-17T14:05:27;9.07;;;5.82;;
82560;SDS011;72228;51.208;10.468;2023-08-17T14:07:52;7.88;;;6.35;;
82560;SDS011;72228;51.208;10.468;2023-08-17T14:10:17;8.27;;;5.88;;
82560;SDS011;72228;51.208;10.468;2023-08-17T14:12:43;8.85;;;5.88;;
82560;SDS011;72228;51.208;10.468;2023-08-17T14:15:08;7.97;;;6.05;;
82560;SDS011;72228;51.208;10.468;2023-08-17T14:17:34;8.10;;;6.20;;
82560;SDS011;72228;51.208;10.468;2023-08-17T14:19:59;10.68;;;7.53;;
82560;SDS011;72228;51.208;10.468;2023-08-17T14:22:25;9.35;;;6.30;;
82560;SDS011;72228;51.208;10.468;2023-08-17T14:24:50;8.70;;;6.07;;
82560;SDS011;72228;51.208;10.468;2023-08-17T14:27:16;10.07;;;6.10;;
82560;SDS011;72228;51.208;10.468;2023-08-17T14:29:41;7.88;;;6.20;;
82560;SDS011;72228;51.208;10.468;2023-08-17T14:32:07;6.75;;;5.57;;
82560;SDS011;72228;51.208;10.468;2023-08-17T14:34:32;7.78;;;5.88;;
82560;SDS011;72228;51.208;10.468;2023-08-17T14:36:57;7.55;;;5.93;;
82560;SDS011;72228;51.208;10.468;2023-08-17T14:39:23;8.15;;;6.40;;
82560;SDS011;72228;51.208;10.468;2023-08-17T14:41:48;7.63;;;5.30;;
82560;SDS011;72228;51.208;10.468;2023-08-17T14:44:14;9.48;;;7.03;;
82560;SDS011;72228;51.208;10.468;2023-08-17T14:46:39;9.05;;;6.43;;
82560;SDS011;72228;51.208;10.468;2023-08-17T14:49:07;8.85;;;6.93;;
82560;SDS011;72228;51.208;10.468;2023-08-17T14:51:36;8.70;;;7.05;;
82560;SDS011;72228;51.208;10.468;2023-08-17T14:54:03;8.20;;;6.47;;
82560;SDS011;72228;51.208;10.468;2023-08-17T14:56:29;7.70;;;6.43;;